createdAt,value
2018-03-22T00:00:22.474Z,4.73
2018-03-22T00:02:49.906Z,4.75
2018-03-22T00:05:17.334Z,4.79
2018-03-22T00:07:45.082Z,4.77
2018-03-22T00:10:12.567Z,4.69
2018-03-22T00:12:39.974Z,4.70
2018-03-22T00:15:07.403Z,4.71
2018-03-22T00:17:34.816Z,4.72
2018-03-22T00:20:02.234Z,4.74
2018-03-22T00:22:38.502Z,4.78
2018-03-22T00:25:05.911Z,4.75
2018-03-22T00:27:33.340Z,4.78
2018-03-22T00:30:00.750Z,4.73
2018-03-22T00:32:28.174Z,4.73
2018-03-22T00:34:55.586Z,4.75
2018-03-22T00:37:23.013Z,4.73
2018-03-22T00:39:50.771Z,4.74
2018-03-22T00:42:18.184Z,4.78
2018-03-22T00:44:45.615Z,4.72
2018-03-22T00:47:15.644Z,4.73
2018-03-22T00:49:43.045Z,4.74
2018-03-22T00:52:10.470Z,4.69
2018-03-22T00:54:37.886Z,4.72
2018-03-22T00:57:05.475Z,4.71
2018-03-22T00:59:33.181Z,4.76
2018-03-22T01:02:00.585Z,4.75
2018-03-22T01:04:27.999Z,4.71
2018-03-22T01:06:55.422Z,4.73
2018-03-22T01:09:22.858Z,4.72
2018-03-22T01:11:50.387Z,4.72
2018-03-22T01:14:17.808Z,4.75
2018-03-22T01:16:45.225Z,4.76
2018-03-22T01:19:12.651Z,4.76
2018-03-22T01:21:40.074Z,4.76
2018-03-22T01:24:07.494Z,4.74
2018-03-22T01:26:35.050Z,4.76
2018-03-22T01:29:02.454Z,4.72
2018-03-22T01:31:29.866Z,4.72
2018-03-22T01:33:57.278Z,4.73
2018-03-22T01:36:24.702Z,4.75
2018-03-22T01:38:52.134Z,4.75
2018-03-22T01:41:19.553Z,4.70
2018-03-22T01:43:46.980Z,4.57
2018-03-22T01:46:14.408Z,4.44
2018-03-22T01:48:41.837Z,4.36
2018-03-22T01:51:09.246Z,4.27
2018-03-22T01:53:36.810Z,4.20
2018-03-22T01:56:04.239Z,4.13
2018-03-22T01:58:31.648Z,4.11
2018-03-22T02:00:59.079Z,4.05
2018-03-22T02:03:26.481Z,4.04
2018-03-22T02:05:53.898Z,4.01
2018-03-22T02:08:21.336Z,3.99
2018-03-22T02:10:48.738Z,3.97
2018-03-22T02:13:16.159Z,3.94
2018-03-22T02:15:43.561Z,3.92
2018-03-22T02:18:10.967Z,3.92
2018-03-22T02:20:38.389Z,3.90
2018-03-22T02:23:05.802Z,3.85
2018-03-22T02:25:33.219Z,3.85
2018-03-22T02:28:00.641Z,3.82
2018-03-22T02:30:28.066Z,3.81
2018-03-22T02:32:55.470Z,3.79
2018-03-22T02:35:22.875Z,3.80
2018-03-22T02:37:50.309Z,3.81
2018-03-22T02:40:17.730Z,3.83
2018-03-22T02:42:45.163Z,3.81
2018-03-22T02:45:12.578Z,3.83
2018-03-22T02:47:39.994Z,3.82
2018-03-22T02:50:07.415Z,3.80
2018-03-22T02:52:34.822Z,3.80
2018-03-22T02:55:02.249Z,3.81
2018-03-22T02:57:29.657Z,3.82
2018-03-22T02:59:57.078Z,3.79
2018-03-22T03:02:24.495Z,3.83
2018-03-22T03:04:51.917Z,3.82
2018-03-22T03:07:19.317Z,3.82
2018-03-22T03:09:46.725Z,3.84
2018-03-22T03:12:14.150Z,3.86
2018-03-22T03:14:41.563Z,3.86
2018-03-22T03:17:09.002Z,3.84
2018-03-22T03:19:36.423Z,3.89
2018-03-22T03:22:04.184Z,3.86
2018-03-22T03:24:31.593Z,3.87
2018-03-22T03:26:59.012Z,3.90
2018-03-22T03:29:26.429Z,3.87
2018-03-22T03:31:53.857Z,3.87
2018-03-22T03:34:21.278Z,3.92
2018-03-22T03:36:48.696Z,3.89
2018-03-22T03:39:16.142Z,3.92
2018-03-22T03:41:43.572Z,3.96
2018-03-22T03:44:11.006Z,3.99
2018-03-22T03:46:38.421Z,4.01
2018-03-22T03:49:05.862Z,4.02
2018-03-22T03:54:23.629Z,4.06
2018-03-22T03:56:51.029Z,4.07
2018-03-22T03:59:18.429Z,4.10
2018-03-22T04:01:45.850Z,4.11
2018-03-22T04:04:13.262Z,4.10
2018-03-22T04:06:40.686Z,4.12
2018-03-22T04:09:08.117Z,4.17
2018-03-22T04:11:35.530Z,4.18
2018-03-22T04:14:02.958Z,4.20
2018-03-22T04:16:30.389Z,4.24
2018-03-22T04:18:57.794Z,4.18
2018-03-22T04:21:25.201Z,4.26
2018-03-22T04:23:52.627Z,4.31
2018-03-22T04:26:20.043Z,4.28
2018-03-22T04:28:47.735Z,4.27
2018-03-22T04:31:15.151Z,4.26
2018-03-22T04:33:42.548Z,4.27
2018-03-22T04:36:09.979Z,4.30
2018-03-22T04:38:37.390Z,4.29
2018-03-22T04:41:04.807Z,4.25
2018-03-22T04:43:32.228Z,4.25
2018-03-22T04:45:59.630Z,4.18
2018-03-22T04:48:27.055Z,4.13
2018-03-22T04:50:54.614Z,4.12
2018-03-22T04:53:22.065Z,4.05
2018-03-22T04:55:49.474Z,4.09
2018-03-22T04:58:16.893Z,3.99
2018-03-22T05:00:44.306Z,4.04
2018-03-22T05:03:11.709Z,4.01
2018-03-22T05:05:39.129Z,3.93
2018-03-22T05:08:06.529Z,3.97
2018-03-22T05:10:33.957Z,3.91
2018-03-22T05:13:01.378Z,3.87
2018-03-22T05:15:28.785Z,3.88
2018-03-22T05:17:56.217Z,3.87
2018-03-22T05:20:23.638Z,3.83
2018-03-22T05:22:51.049Z,3.85
2018-03-22T05:25:18.457Z,3.87
2018-03-22T05:27:45.882Z,3.87
2018-03-22T05:30:13.293Z,3.86
2018-03-22T05:32:40.721Z,3.86
2018-03-22T05:35:08.120Z,3.85
2018-03-22T05:37:35.552Z,3.85
2018-03-22T05:40:02.959Z,3.85
2018-03-22T05:42:30.639Z,3.80
2018-03-22T05:44:58.055Z,3.80
2018-03-22T05:47:25.796Z,3.79
2018-03-22T05:49:53.217Z,3.81
2018-03-22T05:52:20.643Z,3.77
2018-03-22T05:54:48.090Z,3.78
2018-03-22T05:57:15.506Z,3.76
2018-03-22T05:59:42.982Z,3.75
2018-03-22T06:02:10.410Z,3.75
2018-03-22T06:04:37.830Z,3.68
2018-03-22T06:07:05.247Z,3.68
2018-03-22T06:09:32.835Z,3.68
2018-03-22T06:12:00.241Z,3.74
2018-03-22T06:14:27.662Z,3.77
2018-03-22T06:16:55.091Z,3.77
2018-03-22T06:19:22.498Z,3.74
2018-03-22T06:21:49.916Z,3.76
2018-03-22T06:24:17.326Z,3.74
2018-03-22T06:26:44.755Z,3.76
2018-03-22T06:29:12.173Z,3.78
2018-03-22T06:31:39.577Z,3.78
2018-03-22T06:34:06.994Z,3.74
2018-03-22T06:36:34.396Z,3.77
2018-03-22T06:39:02.035Z,3.79
2018-03-22T06:41:29.445Z,3.81
2018-03-22T06:43:56.855Z,3.80
2018-03-22T06:46:24.284Z,3.88
2018-03-22T06:48:51.686Z,3.84
2018-03-22T06:51:19.375Z,3.84
2018-03-22T06:53:46.781Z,3.77
2018-03-22T06:56:14.190Z,3.83
2018-03-22T06:58:41.616Z,3.79
2018-03-22T07:01:09.018Z,3.83
2018-03-22T07:03:36.738Z,3.78
2018-03-22T07:06:04.149Z,3.75
2018-03-22T07:08:31.549Z,3.79
2018-03-22T07:10:58.974Z,3.79
2018-03-22T07:13:26.393Z,3.73
2018-03-22T07:15:53.817Z,3.71
2018-03-22T07:18:21.233Z,3.67
2018-03-22T07:20:48.664Z,3.74
2018-03-22T07:23:16.083Z,3.73
2018-03-22T07:25:43.531Z,3.75
2018-03-22T07:28:10.924Z,3.77
2018-03-22T07:30:38.583Z,3.77
2018-03-22T07:33:06.029Z,3.80
2018-03-22T07:35:33.541Z,3.94
2018-03-22T07:38:00.954Z,3.98
2018-03-22T07:40:28.362Z,4.05
2018-03-22T07:43:01.274Z,4.15
2018-03-22T07:45:28.701Z,4.14
2018-03-22T07:47:56.114Z,4.15
2018-03-22T07:50:23.517Z,4.15
2018-03-22T07:52:50.951Z,4.13
2018-03-22T07:55:18.358Z,4.18
2018-03-22T07:57:45.777Z,4.21
2018-03-22T08:00:13.191Z,4.23
2018-03-22T08:02:40.606Z,4.26
2018-03-22T08:05:08.013Z,4.25
2018-03-22T08:07:35.433Z,4.31
2018-03-22T08:10:02.853Z,4.36
2018-03-22T08:12:30.286Z,4.38
2018-03-22T08:14:57.701Z,4.50
2018-03-22T08:17:25.114Z,4.45
2018-03-22T08:19:52.680Z,4.51
2018-03-22T08:22:20.081Z,4.54
2018-03-22T08:24:47.510Z,4.47
2018-03-22T08:27:14.931Z,4.50
2018-03-22T08:29:42.346Z,4.60
2018-03-22T08:32:09.758Z,4.55
2018-03-22T08:34:37.186Z,4.60
2018-03-22T08:37:04.598Z,4.62
2018-03-22T08:39:32.040Z,4.64
2018-03-22T08:41:59.448Z,4.75
2018-03-22T08:44:26.854Z,4.69
2018-03-22T08:46:54.567Z,4.75
2018-03-22T08:49:21.981Z,4.79
2018-03-22T08:51:49.389Z,4.81
2018-03-22T08:54:16.955Z,4.90
2018-03-22T08:56:44.371Z,4.85
2018-03-22T08:59:11.791Z,4.87
2018-03-22T09:01:39.210Z,4.85
2018-03-22T09:04:06.967Z,4.87
2018-03-22T09:06:34.380Z,4.83
2018-03-22T09:09:01.799Z,4.81
2018-03-22T09:11:29.262Z,4.80
2018-03-22T09:13:56.670Z,4.79
2018-03-22T09:16:24.089Z,4.80
2018-03-22T09:18:51.503Z,4.76
2018-03-22T09:21:19.057Z,4.72
2018-03-22T09:23:46.470Z,4.84
2018-03-22T09:26:13.865Z,4.86
2018-03-22T09:28:41.346Z,5.00
2018-03-22T09:31:08.749Z,4.88
2018-03-22T09:33:36.165Z,4.90
2018-03-22T09:36:03.590Z,4.93
2018-03-22T09:38:31.052Z,5.01
2018-03-22T09:40:58.426Z,5.05
2018-03-22T09:43:25.857Z,5.11
2018-03-22T09:45:53.263Z,5.20
2018-03-22T09:48:20.702Z,5.25
2018-03-22T09:50:48.171Z,5.29
2018-03-22T09:53:15.794Z,5.38
2018-03-22T09:55:43.246Z,5.43
2018-03-22T09:58:10.671Z,5.43
2018-03-22T10:00:38.076Z,5.43
2018-03-22T10:03:05.519Z,5.38
2018-03-22T10:05:32.926Z,5.41
2018-03-22T10:08:00.583Z,5.38
2018-03-22T10:10:27.990Z,5.34
2018-03-22T10:12:55.705Z,5.42
2018-03-22T10:15:23.265Z,5.44
2018-03-22T10:17:50.670Z,5.44
2018-03-22T10:20:18.073Z,5.49
2018-03-22T10:22:45.495Z,5.58
2018-03-22T10:25:12.905Z,5.57
2018-03-22T10:27:40.322Z,5.66
2018-03-22T10:30:07.739Z,5.67
2018-03-22T10:32:35.192Z,5.68
2018-03-22T10:35:02.602Z,5.69
2018-03-22T10:37:30.028Z,5.76
2018-03-22T10:39:57.430Z,5.81
2018-03-22T10:42:25.002Z,5.85
2018-03-22T10:44:52.409Z,5.85
2018-03-22T10:47:19.826Z,5.86
2018-03-22T10:49:47.241Z,5.88
2018-03-22T10:52:14.650Z,5.83
2018-03-22T10:54:42.070Z,5.91
2018-03-22T10:57:09.479Z,5.85
2018-03-22T10:59:36.912Z,6.06
2018-03-22T11:02:04.325Z,6.15
2018-03-22T11:04:31.766Z,6.18
2018-03-22T11:06:59.190Z,6.23
2018-03-22T11:09:26.798Z,6.24
2018-03-22T11:11:54.215Z,6.25
2018-03-22T11:14:21.721Z,6.28
2018-03-22T11:16:49.179Z,6.31
2018-03-22T11:19:16.737Z,6.43
2018-03-22T11:21:44.141Z,6.52
2018-03-22T11:24:11.545Z,6.56
2018-03-22T11:26:39.289Z,6.61
2018-03-22T11:29:06.886Z,6.59
2018-03-22T11:31:34.302Z,6.61
2018-03-22T11:34:01.719Z,6.57
2018-03-22T11:36:29.138Z,6.58
2018-03-22T11:38:56.569Z,6.48
2018-03-22T11:41:24.017Z,6.50
2018-03-22T11:43:51.886Z,6.56
2018-03-22T11:46:19.340Z,6.61
2018-03-22T11:48:46.850Z,6.64
2018-03-22T11:51:14.569Z,6.65
2018-03-22T11:53:42.022Z,6.70
2018-03-22T11:56:09.426Z,6.71
2018-03-22T11:58:36.839Z,6.73
2018-03-22T12:01:04.257Z,6.73
2018-03-22T12:03:31.670Z,6.76
2018-03-22T12:05:59.108Z,6.81
2018-03-22T12:08:26.528Z,6.87
2018-03-22T12:10:53.972Z,6.82
2018-03-22T12:13:21.461Z,6.83
2018-03-22T12:15:48.957Z,6.88
2018-03-22T12:18:16.681Z,6.91
2018-03-22T12:20:44.085Z,6.91
2018-03-22T12:23:11.505Z,6.92
2018-03-22T12:25:38.918Z,6.95
2018-03-22T12:28:06.341Z,6.99
2018-03-22T12:30:33.903Z,7.02
2018-03-22T12:33:01.301Z,7.01
2018-03-22T12:35:28.713Z,7.06
2018-03-22T12:37:56.131Z,7.06
2018-03-22T12:40:23.619Z,7.11
2018-03-22T12:42:51.164Z,7.20
2018-03-22T12:45:18.709Z,7.32
2018-03-22T12:47:46.275Z,7.38
2018-03-22T12:50:13.782Z,7.43
2018-03-22T12:52:41.166Z,7.53
2018-03-22T12:55:08.838Z,7.61
2018-03-22T12:57:36.250Z,7.71
2018-03-22T13:00:03.684Z,7.78
2018-03-22T13:02:31.081Z,7.83
2018-03-22T13:04:58.519Z,7.92
2018-03-22T13:07:26.050Z,7.92
2018-03-22T13:09:53.498Z,7.95
2018-03-22T13:12:21.163Z,7.98
2018-03-22T13:14:48.615Z,8.03
2018-03-22T13:17:16.310Z,8.03
2018-03-22T13:19:43.781Z,8.05
2018-03-22T13:22:12.149Z,8.14
2018-03-22T13:24:39.587Z,8.19
2018-03-22T13:27:06.998Z,8.20
2018-03-22T13:29:34.425Z,8.19
2018-03-22T13:32:01.836Z,8.21
2018-03-22T13:34:29.271Z,8.23
2018-03-22T13:36:56.673Z,8.26
2018-03-22T13:39:24.126Z,8.31
2018-03-22T13:41:51.551Z,8.30
2018-03-22T13:44:18.971Z,8.31
2018-03-22T13:46:46.483Z,8.30
2018-03-22T13:49:13.975Z,8.32
2018-03-22T13:51:41.378Z,8.34
2018-03-22T13:54:08.821Z,8.35
2018-03-22T13:56:36.226Z,8.32
2018-03-22T13:59:03.640Z,8.34
2018-03-22T14:01:31.065Z,8.35
2018-03-22T14:03:58.477Z,8.38
2018-03-22T14:06:25.929Z,8.35
2018-03-22T14:08:53.334Z,8.37
2018-03-22T14:11:20.745Z,8.41
2018-03-22T14:13:48.175Z,8.38
2018-03-22T14:16:15.593Z,8.35
2018-03-22T14:18:43.018Z,8.33
2018-03-22T14:21:10.481Z,8.31
2018-03-22T14:23:37.906Z,8.31
2018-03-22T14:26:05.320Z,8.33
2018-03-22T14:28:32.741Z,8.33
2018-03-22T14:31:00.152Z,8.33
2018-03-22T14:33:27.570Z,8.33
2018-03-22T14:35:54.982Z,8.35
2018-03-22T14:38:22.413Z,8.37
2018-03-22T14:40:49.817Z,8.35
2018-03-22T14:43:17.229Z,8.37
2018-03-22T14:45:44.646Z,8.39
2018-03-22T14:48:12.053Z,8.42
2018-03-22T14:50:39.473Z,8.41
2018-03-22T14:53:06.881Z,8.42
2018-03-22T14:55:34.297Z,8.46
2018-03-22T14:58:01.724Z,8.48
2018-03-22T15:00:29.124Z,8.53
2018-03-22T15:02:56.535Z,8.55
2018-03-22T15:05:23.951Z,8.61
2018-03-22T15:07:51.366Z,8.60
2018-03-22T15:10:18.775Z,8.60
2018-03-22T15:12:46.198Z,8.62
2018-03-22T15:15:13.600Z,8.62
2018-03-22T15:17:41.059Z,8.64
2018-03-22T15:20:08.453Z,8.64
2018-03-22T15:22:35.870Z,8.58
2018-03-22T15:25:03.346Z,8.61
2018-03-22T15:27:30.741Z,8.63
2018-03-22T15:29:58.166Z,8.66
2018-03-22T15:32:25.570Z,8.69
2018-03-22T15:34:52.984Z,8.76
2018-03-22T15:37:20.394Z,8.76
2018-03-22T15:39:47.805Z,8.75
2018-03-22T15:42:15.220Z,8.74
2018-03-22T15:44:42.906Z,8.73
2018-03-22T15:47:10.305Z,8.73
2018-03-22T15:49:37.705Z,8.73
2018-03-22T15:52:05.125Z,8.72
2018-03-22T15:54:32.521Z,8.66
2018-03-22T15:57:02.265Z,8.63
2018-03-22T15:59:29.688Z,8.64
2018-03-22T16:01:57.092Z,8.65
2018-03-22T16:04:24.493Z,8.68
2018-03-22T16:06:51.925Z,8.68
2018-03-22T16:09:19.313Z,8.74
2018-03-22T16:11:46.743Z,8.80
2018-03-22T16:14:14.147Z,8.86
2018-03-22T16:16:41.550Z,8.91
2018-03-22T16:19:08.962Z,8.96
2018-03-22T16:21:36.373Z,9.01
2018-03-22T16:24:03.789Z,9.04
2018-03-22T16:26:31.186Z,9.00
2018-03-22T16:28:58.593Z,9.04
2018-03-22T16:31:26.005Z,9.05
2018-03-22T16:33:53.406Z,9.07
2018-03-22T16:36:20.822Z,9.08
2018-03-22T16:38:48.246Z,9.11
2018-03-22T16:41:15.659Z,9.08
2018-03-22T16:43:43.075Z,9.04
2018-03-22T16:46:10.638Z,9.05
2018-03-22T16:48:38.029Z,9.03
2018-03-22T16:51:05.450Z,9.04
2018-03-22T16:53:33.013Z,9.04
2018-03-22T16:56:00.579Z,9.04
2018-03-22T16:58:28.188Z,9.03
2018-03-22T17:00:55.742Z,9.02
2018-03-22T17:03:23.276Z,9.03
2018-03-22T17:05:50.680Z,9.05
2018-03-22T17:08:18.229Z,9.06
2018-03-22T17:10:45.625Z,9.05
2018-03-22T17:13:13.037Z,9.02
2018-03-22T17:15:40.445Z,8.98
2018-03-22T17:18:11.568Z,8.94
2018-03-22T17:20:38.974Z,8.94
2018-03-22T17:23:06.394Z,8.91
2018-03-22T17:25:33.797Z,8.89
2018-03-22T17:28:01.222Z,8.87
2018-03-22T17:30:28.633Z,8.86
2018-03-22T17:32:56.108Z,8.82
2018-03-22T17:35:23.735Z,8.76
2018-03-22T17:37:51.188Z,8.74
2018-03-22T17:40:18.659Z,8.71
2018-03-22T17:42:46.224Z,8.71
2018-03-22T17:45:13.633Z,8.69
2018-03-22T17:47:41.059Z,8.69
2018-03-22T17:50:08.466Z,8.66
2018-03-22T17:52:35.882Z,8.63
2018-03-22T17:55:03.286Z,8.61
2018-03-22T17:57:30.756Z,8.60
2018-03-22T17:59:58.110Z,8.58
2018-03-22T18:02:25.514Z,8.57
2018-03-22T18:04:53.237Z,8.56
2018-03-22T18:07:20.647Z,8.54
2018-03-22T18:09:48.077Z,8.53
2018-03-22T18:12:15.573Z,8.51
2018-03-22T18:14:43.136Z,8.50
2018-03-22T18:17:10.565Z,8.48
2018-03-22T18:19:37.990Z,8.44
2018-03-22T18:22:05.403Z,8.43
2018-03-22T18:24:32.815Z,8.39
2018-03-22T18:27:00.225Z,8.37
2018-03-22T18:29:27.689Z,8.34
2018-03-22T18:31:55.178Z,8.29
2018-03-22T18:34:22.616Z,8.25
2018-03-22T18:36:50.063Z,8.22
2018-03-22T18:39:17.515Z,8.22
2018-03-22T18:41:44.941Z,8.18
2018-03-22T18:44:12.497Z,8.17
2018-03-22T18:46:39.903Z,8.15
2018-03-22T18:49:07.297Z,8.15
2018-03-22T18:51:34.721Z,8.14
2018-03-22T18:54:02.133Z,8.13
2018-03-22T18:56:29.550Z,8.15
2018-03-22T18:58:56.977Z,8.15
2018-03-22T19:01:24.390Z,8.15
2018-03-22T19:03:52.211Z,8.14
2018-03-22T19:06:19.658Z,8.12
2018-03-22T19:08:47.175Z,8.12
2018-03-22T19:11:15.233Z,8.10
2018-03-22T19:13:42.973Z,8.09
2018-03-22T19:16:11.576Z,8.07
2018-03-22T19:18:39.326Z,8.05
2018-03-22T19:21:07.824Z,8.03
2018-03-22T19:23:35.500Z,8.03
2018-03-22T19:26:03.180Z,8.02
2018-03-22T19:28:30.752Z,8.00
2018-03-22T19:30:58.346Z,7.98
2018-03-22T19:33:25.994Z,7.97
2018-03-22T19:35:53.664Z,7.96
2018-03-22T19:38:21.658Z,7.97
2018-03-22T19:40:49.306Z,7.95
2018-03-22T19:43:16.997Z,7.91
2018-03-22T19:45:44.731Z,7.89
2018-03-22T19:48:12.613Z,7.88
2018-03-22T19:50:40.302Z,7.88
2018-03-22T19:53:07.990Z,7.89
2018-03-22T19:55:35.666Z,7.87
2018-03-22T19:58:03.577Z,7.84
2018-03-22T20:00:31.924Z,7.84
2018-03-22T20:02:59.603Z,7.87
2018-03-22T20:05:27.324Z,7.88
2018-03-22T20:07:55.003Z,7.89
2018-03-22T20:10:22.759Z,7.92
2018-03-22T20:12:50.708Z,7.92
2018-03-22T20:15:18.422Z,7.93
2018-03-22T20:17:46.231Z,7.93
2018-03-22T20:20:13.838Z,7.93
2018-03-22T20:22:41.569Z,7.94
2018-03-22T20:25:09.280Z,7.94
2018-03-22T20:27:36.925Z,7.93
2018-03-22T20:30:04.598Z,7.92
2018-03-22T20:32:32.384Z,7.86
2018-03-22T20:35:00.025Z,7.81
2018-03-22T20:37:27.678Z,7.80
2018-03-22T20:39:55.492Z,7.78
2018-03-22T20:42:23.928Z,7.60
2018-03-22T20:44:52.378Z,7.58
2018-03-22T20:47:20.182Z,7.55
2018-03-22T20:49:47.937Z,7.59
2018-03-22T20:52:16.825Z,7.54
2018-03-22T20:54:45.567Z,7.44
2018-03-22T20:57:13.223Z,7.46
2018-03-22T20:59:40.674Z,7.50
2018-03-22T21:02:08.100Z,7.51
2018-03-22T21:04:35.518Z,7.45
2018-03-22T21:07:03.139Z,7.48
2018-03-22T21:09:30.555Z,7.46
2018-03-22T21:11:57.980Z,7.38
2018-03-22T21:14:25.427Z,7.32
2018-03-22T21:16:52.842Z,7.36
2018-03-22T21:19:20.542Z,7.38
2018-03-22T21:21:48.052Z,7.38
2018-03-22T21:24:15.692Z,7.35
2018-03-22T21:26:43.164Z,7.38
2018-03-22T21:29:10.634Z,7.40
2018-03-22T21:31:38.056Z,7.42
2018-03-22T21:34:05.473Z,7.37
2018-03-22T21:36:32.894Z,7.38
2018-03-22T21:39:00.322Z,7.38
2018-03-22T21:41:27.809Z,7.37
2018-03-22T21:44:06.849Z,7.38
2018-03-22T21:46:34.260Z,7.37
2018-03-22T21:49:01.849Z,7.39
2018-03-22T21:51:29.344Z,7.38
2018-03-22T21:53:56.763Z,7.37
2018-03-22T21:56:24.243Z,7.39
2018-03-22T21:58:51.685Z,7.32
2018-03-22T22:01:19.116Z,7.38
2018-03-22T22:03:46.576Z,7.39
2018-03-22T22:06:14.316Z,7.40
2018-03-22T22:08:41.765Z,7.40
2018-03-22T22:11:09.333Z,7.38
2018-03-22T22:13:36.737Z,7.38
2018-03-22T22:16:04.157Z,7.38
2018-03-22T22:18:31.565Z,7.37
2018-03-22T22:20:58.999Z,7.36
2018-03-22T22:23:26.431Z,7.35
2018-03-22T22:25:53.928Z,7.35
2018-03-22T22:28:21.359Z,7.34
2018-03-22T22:30:48.839Z,7.30
2018-03-22T22:33:16.311Z,7.30
2018-03-22T22:35:43.742Z,7.29
2018-03-22T22:38:11.159Z,7.28
2018-03-22T22:40:38.577Z,7.27
2018-03-22T22:43:05.986Z,7.18
2018-03-22T22:45:33.402Z,7.14
2018-03-22T22:48:00.806Z,7.17
2018-03-22T22:50:28.227Z,7.16
2018-03-22T22:52:55.646Z,7.13
2018-03-22T22:55:23.089Z,7.12
2018-03-22T22:57:50.534Z,7.01
2018-03-22T23:00:18.010Z,6.98
2018-03-22T23:02:45.458Z,7.00
2018-03-22T23:05:12.973Z,7.01
2018-03-22T23:07:40.403Z,6.99
2018-03-22T23:10:07.807Z,7.03
2018-03-22T23:12:35.217Z,7.01
2018-03-22T23:15:02.626Z,7.01
2018-03-22T23:17:30.050Z,6.99
2018-03-22T23:19:57.450Z,6.93
2018-03-22T23:22:24.858Z,6.95
2018-03-22T23:24:52.296Z,6.99
2018-03-22T23:27:19.726Z,6.95
2018-03-22T23:29:47.177Z,6.95
2018-03-22T23:32:14.589Z,6.99
2018-03-22T23:34:42.010Z,6.94
2018-03-22T23:37:09.430Z,6.92
2018-03-22T23:39:36.833Z,6.94
2018-03-22T23:42:04.639Z,6.92
2018-03-22T23:44:32.029Z,6.90
2018-03-22T23:46:59.435Z,6.91
2018-03-22T23:49:26.846Z,6.90
2018-03-22T23:51:54.253Z,6.90
2018-03-22T23:54:21.682Z,6.89
2018-03-22T23:56:49.087Z,6.86
2018-03-22T23:59:16.534Z,6.85
